sensor_id;sensor_type;location;lat;lon;timestamp;pressure;altitude;pressure_sealevel;temperature;humidity
46944;BME280;32678;43.852;25.952;2023-12-29T00:00:11;101743.38;;;6.89;72.63
46944;BME280;32678;43.852;25.952;2023-12-29T00:05:09;101735.59;;;6.63;72.83
46944;BME280;32678;43.852;25.952;2023-12-29T00:10:06;101728.66;;;6.09;75.33
46944;BME280;32678;43.852;25.952;2023-12-29T00:15:03;101725.06;;;5.72;77.42
46944;BME280;32678;43.852;25.952;2023-12-29T00:20:00;101726.81;;;5.65;78.85
46944;BME280;32678;43.852;25.952;2023-12-29T00:24:57;101719.88;;;5.74;79.57
46944;BME280;32678;43.852;25.952;2023-12-29T00:29:54;101734.63;;;5.78;79.59
46944;BME280;32678;43.852;25.952;2023-12-29T00:34:51;101731.16;;;5.76;79.56
46944;BME280;32678;43.852;25.952;2023-12-29T00:39:47;101732.91;;;5.81;79.66
46944;BME280;32678;43.852;25.952;2023-12-29T00:44:45;101739.03;;;5.89;78.51
46944;BME280;32678;43.852;25.952;2023-12-29T00:49:41;101746.84;;;5.95;77.42
46944;BME280;32678;43.852;25.952;2023-12-29T00:54:40;101744.22;;;5.88;75.22
46944;BME280;32678;43.852;25.952;2023-12-29T00:59:37;101752.84;;;5.75;75.68
46944;BME280;32678;43.852;25.952;2023-12-29T01:04:35;101749.38;;;5.71;75.68
46944;BME280;32678;43.852;25.952;2023-12-29T01:09:36;101751.00;;;5.45;75.85
46944;BME280;32678;43.852;25.952;2023-12-29T01:14:34;101737.81;;;5.04;78.64
46944;BME280;32678;43.852;25.952;2023-12-29T01:19:30;101735.22;;;5.05;80.01
46944;BME280;32678;43.852;25.952;2023-12-29T01:24:28;101732.56;;;4.92;80.17
46944;BME280;32678;43.852;25.952;2023-12-29T01:29:37;101741.25;;;5.00;79.79
46944;BME280;32678;43.852;25.952;2023-12-29T01:34:36;101730.06;;;5.14;78.44
46944;BME280;32678;43.852;25.952;2023-12-29T01:39:33;101727.16;;;4.58;81.30
46944;BME280;32678;43.852;25.952;2023-12-29T01:44:31;101725.53;;;4.75;81.68
46944;BME280;32678;43.852;25.952;2023-12-29T01:49:27;101722.94;;;4.77;82.50
46944;BME280;32678;43.852;25.952;2023-12-29T01:54:26;101713.59;;;5.14;81.65
46944;BME280;32678;43.852;25.952;2023-12-29T01:59:25;101710.06;;;4.97;82.93
46944;BME280;32678;43.852;25.952;2023-12-29T02:04:23;101706.66;;;5.11;81.71
46944;BME280;32678;43.852;25.952;2023-12-29T02:09:20;101695.31;;;4.93;80.75
46944;BME280;32678;43.852;25.952;2023-12-29T02:14:17;101684.84;;;4.76;81.48
46944;BME280;32678;43.852;25.952;2023-12-29T02:19:20;101689.91;;;4.56;83.52
46944;BME280;32678;43.852;25.952;2023-12-29T02:24:20;101687.25;;;4.47;84.04
46944;BME280;32678;43.852;25.952;2023-12-29T02:29:17;101669.97;;;4.49;83.68
46944;BME280;32678;43.852;25.952;2023-12-29T02:34:16;101677.75;;;4.52;83.01
46944;BME280;32678;43.852;25.952;2023-12-29T02:39:14;101679.59;;;4.70;83.18
46944;BME280;32678;43.852;25.952;2023-12-29T02:44:11;101670.78;;;4.42;83.68
46944;BME280;32678;43.852;25.952;2023-12-29T02:49:08;101668.94;;;4.27;84.28
46944;BME280;32678;43.852;25.952;2023-12-29T02:54:08;101662.81;;;4.18;84.82
46944;BME280;32678;43.852;25.952;2023-12-29T02:59:05;101659.25;;;4.04;85.71
46944;BME280;32678;43.852;25.952;2023-12-29T03:04:03;101657.47;;;4.00;87.16
46944;BME280;32678;43.852;25.952;2023-12-29T03:09:00;101656.41;;;3.75;88.96
46944;BME280;32678;43.852;25.952;2023-12-29T03:13:57;101654.22;;;4.25;89.21
46944;BME280;32678;43.852;25.952;2023-12-29T03:18:54;101646.53;;;4.42;87.76
46944;BME280;32678;43.852;25.952;2023-12-29T03:23:50;101643.94;;;4.39;86.15
46944;BME280;32678;43.852;25.952;2023-12-29T03:28:48;101644.84;;;4.48;84.81
46944;BME280;32678;43.852;25.952;2023-12-29T03:33:44;101642.06;;;4.22;86.30
46944;BME280;32678;43.852;25.952;2023-12-29T03:38:41;101636.09;;;4.35;86.39
46944;BME280;32678;43.852;25.952;2023-12-29T03:43:37;101633.63;;;4.55;84.51
46944;BME280;32678;43.852;25.952;2023-12-29T03:48:35;101626.75;;;4.66;84.30
46944;BME280;32678;43.852;25.952;2023-12-29T03:53:32;101632.03;;;4.78;84.80
46944;BME280;32678;43.852;25.952;2023-12-29T03:58:28;101645.16;;;5.10;83.71
46944;BME280;32678;43.852;25.952;2023-12-29T04:03:25;101632.94;;;4.94;83.27
46944;BME280;32678;43.852;25.952;2023-12-29T04:08:22;101638.25;;;5.26;82.21
46944;BME280;32678;43.852;25.952;2023-12-29T04:13:18;101647.78;;;5.18;83.19
46944;BME280;32678;43.852;25.952;2023-12-29T04:18:15;101647.69;;;5.00;83.79
46944;BME280;32678;43.852;25.952;2023-12-29T04:23:12;101650.38;;;5.24;83.52
46944;BME280;32678;43.852;25.952;2023-12-29T04:28:10;101653.00;;;5.22;83.57
46944;BME280;32678;43.852;25.952;2023-12-29T04:33:06;101650.34;;;5.10;83.26
46944;BME280;32678;43.852;25.952;2023-12-29T04:38:03;101641.63;;;4.95;82.73
46944;BME280;32678;43.852;25.952;2023-12-29T04:43:00;101638.09;;;4.85;82.95
46944;BME280;32678;43.852;25.952;2023-12-29T04:47:57;101641.72;;;5.23;81.38
46944;BME280;32678;43.852;25.952;2023-12-29T04:52:54;101638.25;;;5.23;81.38
46944;BME280;32678;43.852;25.952;2023-12-29T04:57:51;101637.28;;;4.88;80.98
46944;BME280;32678;43.852;25.952;2023-12-29T05:02:47;101630.28;;;4.80;81.98
46944;BME280;32678;43.852;25.952;2023-12-29T05:07:45;101620.66;;;4.54;82.77
46944;BME280;32678;43.852;25.952;2023-12-29T05:12:41;101625.94;;;4.79;81.31
46944;BME280;32678;43.852;25.952;2023-12-29T05:17:38;101632.16;;;5.10;80.52
46944;BME280;32678;43.852;25.952;2023-12-29T05:22:35;101634.72;;;5.09;80.91
46944;BME280;32678;43.852;25.952;2023-12-29T05:27:32;101629.53;;;5.03;80.68
46944;BME280;32678;43.852;25.952;2023-12-29T05:32:31;101638.22;;;5.08;80.95
46944;BME280;32678;43.852;25.952;2023-12-29T05:37:28;101638.94;;;4.73;82.14
46944;BME280;32678;43.852;25.952;2023-12-29T05:42:24;101638.03;;;4.67;82.86
46944;BME280;32678;43.852;25.952;2023-12-29T05:47:22;101631.16;;;4.79;82.39
46944;BME280;32678;43.852;25.952;2023-12-29T05:52:18;101642.44;;;4.82;81.99
46944;BME280;32678;43.852;25.952;2023-12-29T05:57:15;101647.75;;;5.12;81.48
46944;BME280;32678;43.852;25.952;2023-12-29T06:02:12;101653.53;;;4.55;80.72
46944;BME280;32678;43.852;25.952;2023-12-29T06:07:09;101656.25;;;4.73;80.29
46944;BME280;32678;43.852;25.952;2023-12-29T06:12:06;101658.91;;;4.87;80.06
46944;BME280;32678;43.852;25.952;2023-12-29T06:17:04;101645.88;;;4.77;80.03
46944;BME280;32678;43.852;25.952;2023-12-29T06:22:00;101644.16;;;4.83;80.32
46944;BME280;32678;43.852;25.952;2023-12-29T06:26:58;101644.25;;;5.05;79.66
46944;BME280;32678;43.852;25.952;2023-12-29T06:31:54;101652.88;;;4.92;80.13
46944;BME280;32678;43.852;25.952;2023-12-29T06:36:51;101657.09;;;4.67;82.31
46944;BME280;32678;43.852;25.952;2023-12-29T06:41:48;101658.00;;;4.82;82.11
46944;BME280;32678;43.852;25.952;2023-12-29T06:46:45;101654.56;;;4.83;82.10
46944;BME280;32678;43.852;25.952;2023-12-29T06:51:42;101659.72;;;4.75;82.58
46944;BME280;32678;43.852;25.952;2023-12-29T06:56:38;101656.31;;;4.88;82.72
46944;BME280;32678;43.852;25.952;2023-12-29T07:01:38;101651.72;;;4.42;84.01
46944;BME280;32678;43.852;25.952;2023-12-29T07:06:35;101638.00;;;4.61;84.48
46944;BME280;32678;43.852;25.952;2023-12-29T07:11:32;101644.81;;;4.42;86.15
46944;BME280;32678;43.852;25.952;2023-12-29T07:16:29;101637.22;;;4.77;85.51
46944;BME280;32678;43.852;25.952;2023-12-29T07:21:25;101638.16;;;4.96;84.81
46944;BME280;32678;43.852;25.952;2023-12-29T07:26:23;101626.09;;;5.13;84.18
46944;BME280;32678;43.852;25.952;2023-12-29T07:31:19;101630.47;;;5.35;83.94
46944;BME280;32678;43.852;25.952;2023-12-29T07:36:16;101616.66;;;5.63;83.01
46944;BME280;32678;43.852;25.952;2023-12-29T07:41:14;101613.22;;;5.81;82.64
46944;BME280;32678;43.852;25.952;2023-12-29T07:46:11;101614.06;;;6.21;80.77
46944;BME280;32678;43.852;25.952;2023-12-29T07:51:08;101626.19;;;6.48;80.00
46944;BME280;32678;43.852;25.952;2023-12-29T07:56:05;101624.38;;;6.65;79.63
46944;BME280;32678;43.852;25.952;2023-12-29T08:01:01;101627.78;;;6.91;79.27
46944;BME280;32678;43.852;25.952;2023-12-29T08:05:59;101638.97;;;7.16;78.82
46944;BME280;32678;43.852;25.952;2023-12-29T08:10:55;101648.50;;;7.22;78.55
46944;BME280;32678;43.852;25.952;2023-12-29T08:15:52;101660.72;;;7.12;78.71
46944;BME280;32678;43.852;25.952;2023-12-29T08:20:48;101662.31;;;7.40;77.85
46944;BME280;32678;43.852;25.952;2023-12-29T08:25:46;101680.41;;;7.69;74.40
46944;BME280;32678;43.852;25.952;2023-12-29T08:30:42;101676.88;;;7.75;74.62
46944;BME280;32678;43.852;25.952;2023-12-29T08:35:41;101681.19;;;7.80;75.02
46944;BME280;32678;43.852;25.952;2023-12-29T08:40:39;101683.56;;;8.14;74.15
46944;BME280;32678;43.852;25.952;2023-12-29T08:45:36;101687.59;;;8.53;73.10
46944;BME280;32678;43.852;25.952;2023-12-29T08:50:34;101686.53;;;8.70;72.81
46944;BME280;32678;43.852;25.952;2023-12-29T08:55:30;101675.03;;;8.88;71.26
46944;BME280;32678;43.852;25.952;2023-12-29T09:00:27;101695.94;;;9.57;69.29
46944;BME280;32678;43.852;25.952;2023-12-29T09:05:26;101693.47;;;9.45;69.57
46944;BME280;32678;43.852;25.952;2023-12-29T09:10:23;101688.69;;;9.74;68.03
46944;BME280;32678;43.852;25.952;2023-12-29T09:15:20;101687.75;;;9.80;67.80
46944;BME280;32678;43.852;25.952;2023-12-29T09:20:16;101677.78;;;10.03;67.54
46944;BME280;32678;43.852;25.952;2023-12-29T09:25:14;101682.19;;;10.01;67.94
46944;BME280;32678;43.852;25.952;2023-12-29T09:30:11;101669.69;;;10.20;67.43
46944;BME280;32678;43.852;25.952;2023-12-29T09:35:08;101672.13;;;10.30;66.44
46944;BME280;32678;43.852;25.952;2023-12-29T09:40:05;101665.03;;;10.35;65.54
46944;BME280;32678;43.852;25.952;2023-12-29T09:45:03;101666.03;;;10.28;65.51
46944;BME280;32678;43.852;25.952;2023-12-29T09:50:04;101656.75;;;10.58;64.46
46944;BME280;32678;43.852;25.952;2023-12-29T09:55:02;101648.19;;;10.49;64.76
46944;BME280;32678;43.852;25.952;2023-12-29T09:59:59;101648.97;;;10.54;64.97
46944;BME280;32678;43.852;25.952;2023-12-29T10:04:57;101648.41;;;10.82;63.52
46944;BME280;32678;43.852;25.952;2023-12-29T10:09:55;101633.94;;;11.06;62.81
46944;BME280;32678;43.852;25.952;2023-12-29T10:14:55;101622.19;;;10.82;63.57
46944;BME280;32678;43.852;25.952;2023-12-29T10:19:55;101619.84;;;11.10;63.09
46944;BME280;32678;43.852;25.952;2023-12-29T10:24:55;101613.81;;;11.05;63.65
46944;BME280;32678;43.852;25.952;2023-12-29T10:29:52;101607.75;;;11.03;63.84
46944;BME280;32678;43.852;25.952;2023-12-29T10:34:49;101604.84;;;11.17;63.78
46944;BME280;32678;43.852;25.952;2023-12-29T10:39:54;101598.75;;;11.15;64.77
46944;BME280;32678;43.852;25.952;2023-12-29T10:45:04;101591.28;;;11.35;63.88
46944;BME280;32678;43.852;25.952;2023-12-29T10:50:01;101583.16;;;11.47;62.72
46944;BME280;32678;43.852;25.952;2023-12-29T10:55:06;101576.84;;;11.17;64.19
46944;BME280;32678;43.852;25.952;2023-12-29T11:00:04;101563.50;;;11.26;64.87
46944;BME280;32678;43.852;25.952;2023-12-29T11:05:06;101556.06;;;11.44;64.15
46944;BME280;32678;43.852;25.952;2023-12-29T11:10:05;101562.63;;;11.63;63.31
46944;BME280;32678;43.852;25.952;2023-12-29T11:15:03;101545.19;;;11.96;61.84
46944;BME280;32678;43.852;25.952;2023-12-29T11:20:01;101541.81;;;11.91;61.71
46944;BME280;32678;43.852;25.952;2023-12-29T11:24:59;101536.34;;;11.98;61.26
46944;BME280;32678;43.852;25.952;2023-12-29T11:29:56;101536.72;;;11.85;61.56
46944;BME280;32678;43.852;25.952;2023-12-29T11:34:53;101533.59;;;12.03;61.08
46944;BME280;32678;43.852;25.952;2023-12-29T11:39:52;101528.63;;;12.25;60.96
46944;BME280;32678;43.852;25.952;2023-12-29T11:44:50;101527.53;;;12.32;60.47
46944;BME280;32678;43.852;25.952;2023-12-29T11:55:09;101497.41;;;12.43;59.77
46944;BME280;32678;43.852;25.952;2023-12-29T12:00:06;101518.81;;;12.31;60.21
46944;BME280;32678;43.852;25.952;2023-12-29T12:05:08;101496.47;;;12.46;59.28
46944;BME280;32678;43.852;25.952;2023-12-29T12:15:32;101498.16;;;12.78;58.68
46944;BME280;32678;43.852;25.952;2023-12-29T12:20:29;101491.13;;;12.78;58.73
46944;BME280;32678;43.852;25.952;2023-12-29T12:25:28;101483.91;;;12.85;58.07
46944;BME280;32678;43.852;25.952;2023-12-29T12:30:24;101490.22;;;12.79;58.39
46944;BME280;32678;43.852;25.952;2023-12-29T12:35:22;101490.97;;;12.83;58.77
46944;BME280;32678;43.852;25.952;2023-12-29T12:40:26;101488.75;;;13.26;56.38
46944;BME280;32678;43.852;25.952;2023-12-29T12:45:23;101487.44;;;13.66;55.41
46944;BME280;32678;43.852;25.952;2023-12-29T12:50:22;101487.28;;;13.44;56.04
46944;BME280;32678;43.852;25.952;2023-12-29T12:55:19;101477.66;;;13.43;55.31
46944;BME280;32678;43.852;25.952;2023-12-29T13:00:16;101492.72;;;13.12;56.22
46944;BME280;32678;43.852;25.952;2023-12-29T13:05:20;101490.69;;;13.20;56.22
46944;BME280;32678;43.852;25.952;2023-12-29T13:10:26;101489.34;;;13.34;56.29
46944;BME280;32678;43.852;25.952;2023-12-29T13:15:25;101485.28;;;13.24;56.86
46944;BME280;32678;43.852;25.952;2023-12-29T13:20:35;101488.75;;;13.26;57.22
46944;BME280;32678;43.852;25.952;2023-12-29T13:25:39;101485.97;;;13.31;56.97
46944;BME280;32678;43.852;25.952;2023-12-29T13:30:36;101495.13;;;13.19;57.70
46944;BME280;32678;43.852;25.952;2023-12-29T13:35:35;101494.25;;;13.45;56.62
46944;BME280;32678;43.852;25.952;2023-12-29T13:40:34;101490.47;;;13.54;56.22
46944;BME280;32678;43.852;25.952;2023-12-29T13:45:32;101486.78;;;13.33;57.07
46944;BME280;32678;43.852;25.952;2023-12-29T13:50:29;101485.72;;;13.38;57.12
46944;BME280;32678;43.852;25.952;2023-12-29T13:55:26;101478.69;;;13.11;58.25
46944;BME280;32678;43.852;25.952;2023-12-29T14:00:23;101489.16;;;13.14;58.43
46944;BME280;32678;43.852;25.952;2023-12-29T14:05:25;101491.50;;;13.23;58.41
46944;BME280;32678;43.852;25.952;2023-12-29T14:10:29;101498.44;;;13.24;58.59
46944;BME280;32678;43.852;25.952;2023-12-29T14:15:27;101502.66;;;13.30;58.42
46944;BME280;32678;43.852;25.952;2023-12-29T14:20:32;101497.81;;;13.18;58.96
46944;BME280;32678;43.852;25.952;2023-12-29T14:25:32;101503.88;;;13.20;59.10
46944;BME280;32678;43.852;25.952;2023-12-29T14:30:31;101506.91;;;13.06;59.21
46944;BME280;32678;43.852;25.952;2023-12-29T14:35:30;101507.44;;;13.19;58.86
46944;BME280;32678;43.852;25.952;2023-12-29T14:40:29;101508.41;;;13.15;59.20
46944;BME280;32678;43.852;25.952;2023-12-29T14:45:26;101491.06;;;13.08;59.50
46944;BME280;32678;43.852;25.952;2023-12-29T14:50:25;101503.53;;;13.02;59.43
46944;BME280;32678;43.852;25.952;2023-12-29T14:55:22;101507.97;;;13.00;59.40
46944;BME280;32678;43.852;25.952;2023-12-29T15:00:19;101513.47;;;12.93;59.57
46944;BME280;32678;43.852;25.952;2023-12-29T15:05:16;101520.31;;;12.98;59.30
46944;BME280;32678;43.852;25.952;2023-12-29T15:10:13;101523.31;;;12.86;59.96
46944;BME280;32678;43.852;25.952;2023-12-29T15:15:10;101526.25;;;12.76;60.44
46944;BME280;32678;43.852;25.952;2023-12-29T15:20:08;101522.69;;;12.49;61.55
46944;BME280;32678;43.852;25.952;2023-12-29T15:25:06;101525.41;;;12.46;61.82
46944;BME280;32678;43.852;25.952;2023-12-29T15:30:03;101536.69;;;12.19;62.58
46944;BME280;32678;43.852;25.952;2023-12-29T15:35:00;101538.09;;;11.98;63.65
46944;BME280;32678;43.852;25.952;2023-12-29T15:39:57;101537.69;;;12.13;62.76
46944;BME280;32678;43.852;25.952;2023-12-29T15:44:55;101532.13;;;12.25;62.09
46944;BME280;32678;43.852;25.952;2023-12-29T15:49:52;101536.50;;;12.25;62.00
46944;BME280;32678;43.852;25.952;2023-12-29T15:54:48;101548.78;;;12.24;61.68
46944;BME280;32678;43.852;25.952;2023-12-29T15:59:46;101547.84;;;12.27;61.30
46944;BME280;32678;43.852;25.952;2023-12-29T16:04:42;101549.56;;;12.28;61.38
46944;BME280;32678;43.852;25.952;2023-12-29T16:09:40;101532.91;;;12.27;61.41
46944;BME280;32678;43.852;25.952;2023-12-29T16:14:36;101532.44;;;12.45;60.74
46944;BME280;32678;43.852;25.952;2023-12-29T16:19:34;101534.19;;;12.45;60.87
46944;BME280;32678;43.852;25.952;2023-12-29T16:24:32;101533.34;;;12.44;60.80
46944;BME280;32678;43.852;25.952;2023-12-29T16:29:28;101519.06;;;12.53;60.03
46944;BME280;32678;43.852;25.952;2023-12-29T16:34:25;101539.91;;;12.61;60.11
46944;BME280;32678;43.852;25.952;2023-12-29T16:39:23;101527.72;;;12.56;59.92
46944;BME280;32678;43.852;25.952;2023-12-29T16:44:19;101526.75;;;12.61;59.62
46944;BME280;32678;43.852;25.952;2023-12-29T16:49:16;101529.25;;;12.93;58.24
46944;BME280;32678;43.852;25.952;2023-12-29T16:54:13;101533.84;;;12.86;58.34
46944;BME280;32678;43.852;25.952;2023-12-29T16:59:10;101541.06;;;12.80;58.60
46944;BME280;32678;43.852;25.952;2023-12-29T17:04:06;101545.09;;;12.62;59.05
46944;BME280;32678;43.852;25.952;2023-12-29T17:09:03;101540.69;;;12.32;60.13
46944;BME280;32678;43.852;25.952;2023-12-29T17:14:00;101544.25;;;12.31;60.23
46944;BME280;32678;43.852;25.952;2023-12-29T17:18:57;101543.09;;;12.08;60.85
46944;BME280;32678;43.852;25.952;2023-12-29T17:23:54;101545.53;;;12.16;60.43
46944;BME280;32678;43.852;25.952;2023-12-29T17:28:50;101543.22;;;12.02;61.00
46944;BME280;32678;43.852;25.952;2023-12-29T17:33:47;101539.97;;;11.94;61.14
46944;BME280;32678;43.852;25.952;2023-12-29T17:38:44;101546.06;;;11.96;61.19
46944;BME280;32678;43.852;25.952;2023-12-29T17:43:41;101543.44;;;11.95;61.39
46944;BME280;32678;43.852;25.952;2023-12-29T17:48:38;101559.53;;;12.17;60.55
46944;BME280;32678;43.852;25.952;2023-12-29T17:53:34;101557.59;;;11.91;61.35
46944;BME280;32678;43.852;25.952;2023-12-29T17:58:32;101562.19;;;11.81;61.82
46944;BME280;32678;43.852;25.952;2023-12-29T18:03:29;101559.63;;;11.78;61.94
46944;BME280;32678;43.852;25.952;2023-12-29T18:08:26;101566.34;;;11.90;61.63
46944;BME280;32678;43.852;25.952;2023-12-29T18:13:22;101567.25;;;11.89;61.57
46944;BME280;32678;43.852;25.952;2023-12-29T18:18:20;101564.47;;;11.95;61.43
46944;BME280;32678;43.852;25.952;2023-12-29T18:23:16;101553.75;;;12.02;61.31
46944;BME280;32678;43.852;25.952;2023-12-29T18:28:13;101554.50;;;12.07;60.94
46944;BME280;32678;43.852;25.952;2023-12-29T18:33:10;101556.47;;;11.99;61.27
46944;BME280;32678;43.852;25.952;2023-12-29T18:38:08;101550.50;;;11.93;61.68
46944;BME280;32678;43.852;25.952;2023-12-29T18:43:05;101559.88;;;12.03;61.34
46944;BME280;32678;43.852;25.952;2023-12-29T18:48:05;101573.19;;;11.97;61.40
46944;BME280;32678;43.852;25.952;2023-12-29T18:53:03;101564.50;;;11.93;61.22
46944;BME280;32678;43.852;25.952;2023-12-29T18:58:00;101562.44;;;11.70;61.86
46944;BME280;32678;43.852;25.952;2023-12-29T19:02:57;101559.63;;;11.78;61.78
46944;BME280;32678;43.852;25.952;2023-12-29T19:07:54;101567.25;;;11.89;60.94
46944;BME280;32678;43.852;25.952;2023-12-29T19:12:51;101564.22;;;11.68;60.90
46944;BME280;32678;43.852;25.952;2023-12-29T19:17:48;101560.94;;;11.60;61.14
46944;BME280;32678;43.852;25.952;2023-12-29T19:22:45;101568.03;;;11.57;61.11
46944;BME280;32678;43.852;25.952;2023-12-29T19:27:42;101560.53;;;11.40;61.47
46944;BME280;32678;43.852;25.952;2023-12-29T19:32:40;101564.66;;;11.52;61.16
46944;BME280;32678;43.852;25.952;2023-12-29T19:37:38;101563.00;;;11.48;60.97
46944;BME280;32678;43.852;25.952;2023-12-29T19:42:40;101564.25;;;11.32;61.35
46944;BME280;32678;43.852;25.952;2023-12-29T19:47:38;101561.53;;;11.36;60.96
46944;BME280;32678;43.852;25.952;2023-12-29T19:52:35;101554.50;;;11.37;60.84
46944;BME280;32678;43.852;25.952;2023-12-29T19:57:32;101567.00;;;11.25;61.22
46944;BME280;32678;43.852;25.952;2023-12-29T20:02:29;101547.63;;;10.94;61.73
46944;BME280;32678;43.852;25.952;2023-12-29T20:07:25;101555.13;;;11.09;61.56
46944;BME280;32678;43.852;25.952;2023-12-29T20:12:23;101557.63;;;10.75;62.95
46944;BME280;32678;43.852;25.952;2023-12-29T20:17:21;101564.44;;;10.84;62.78
46944;BME280;32678;43.852;25.952;2023-12-29T20:22:18;101570.16;;;10.61;63.22
46944;BME280;32678;43.852;25.952;2023-12-29T20:27:17;101562.03;;;10.75;62.57
46944;BME280;32678;43.852;25.952;2023-12-29T20:32:14;101558.06;;;10.96;61.32
46944;BME280;32678;43.852;25.952;2023-12-29T20:37:11;101566.91;;;10.90;61.48
46944;BME280;32678;43.852;25.952;2023-12-29T20:42:08;101567.84;;;10.88;61.49
46944;BME280;32678;43.852;25.952;2023-12-29T20:47:07;101563.69;;;10.77;61.71
46944;BME280;32678;43.852;25.952;2023-12-29T20:52:04;101565.22;;;10.89;61.28
46944;BME280;32678;43.852;25.952;2023-12-29T20:57:02;101562.59;;;10.89;61.19
46944;BME280;32678;43.852;25.952;2023-12-29T21:01:58;101569.25;;;10.62;61.89
46944;BME280;32678;43.852;25.952;2023-12-29T21:07:00;101567.78;;;10.49;62.07
46944;BME280;32678;43.852;25.952;2023-12-29T21:11:56;101575.88;;;10.37;62.27
46944;BME280;32678;43.852;25.952;2023-12-29T21:16:54;101562.44;;;10.55;61.63
46944;BME280;32678;43.852;25.952;2023-12-29T21:21:50;101567.06;;;10.41;61.84
46944;BME280;32678;43.852;25.952;2023-12-29T21:26:47;101561.88;;;10.38;62.03
46944;BME280;32678;43.852;25.952;2023-12-29T21:31:44;101558.19;;;10.48;61.50
46944;BME280;32678;43.852;25.952;2023-12-29T21:36:41;101554.28;;;10.24;62.26
46944;BME280;32678;43.852;25.952;2023-12-29T21:41:38;101563.88;;;10.25;62.05
46944;BME280;32678;43.852;25.952;2023-12-29T21:46:34;101562.25;;;10.20;62.10
46944;BME280;32678;43.852;25.952;2023-12-29T21:51:31;101558.47;;;10.33;61.69
46944;BME280;32678;43.852;25.952;2023-12-29T21:56:28;101548.41;;;10.10;62.32
46944;BME280;32678;43.852;25.952;2023-12-29T22:01:25;101538.31;;;10.36;61.74
46944;BME280;32678;43.852;25.952;2023-12-29T22:06:23;101541.31;;;10.15;62.09
46944;BME280;32678;43.852;25.952;2023-12-29T22:11:19;101542.91;;;10.25;62.04
46944;BME280;32678;43.852;25.952;2023-12-29T22:16:17;101529.81;;;10.25;61.62
46944;BME280;32678;43.852;25.952;2023-12-29T22:21:13;101543.28;;;10.02;62.56
46944;BME280;32678;43.852;25.952;2023-12-29T22:26:11;101537.22;;;10.00;62.65
46944;BME280;32678;43.852;25.952;2023-12-29T22:31:09;101523.34;;;9.95;62.70
46944;BME280;32678;43.852;25.952;2023-12-29T22:36:10;101519.06;;;9.91;63.01
46944;BME280;32678;43.852;25.952;2023-12-29T22:41:07;101512.28;;;9.78;63.31
46944;BME280;32678;43.852;25.952;2023-12-29T22:46:04;101514.69;;;9.92;63.07
46944;BME280;32678;43.852;25.952;2023-12-29T22:51:00;101499.63;;;10.03;62.58
46944;BME280;32678;43.852;25.952;2023-12-29T22:56:01;101499.19;;;9.80;63.24
46944;BME280;32678;43.852;25.952;2023-12-29T23:00:57;101489.41;;;9.88;62.89
46944;BME280;32678;43.852;25.952;2023-12-29T23:05:54;101494.91;;;9.76;63.57
46944;BME280;32678;43.852;25.952;2023-12-29T23:10:50;101487.22;;;9.67;64.03
46944;BME280;32678;43.852;25.952;2023-12-29T23:15:48;101484.88;;;9.97;62.79
46944;BME280;32678;43.852;25.952;2023-12-29T23:20:45;101477.63;;;9.64;63.83
46944;BME280;32678;43.852;25.952;2023-12-29T23:25:42;101480.94;;;9.75;63.47
46944;BME280;32678;43.852;25.952;2023-12-29T23:30:41;101485.22;;;9.79;63.34
46944;BME280;32678;43.852;25.952;2023-12-29T23:35:38;101474.38;;;9.99;62.48
46944;BME280;32678;43.852;25.952;2023-12-29T23:40:35;101476.16;;;9.97;62.60
46944;BME280;32678;43.852;25.952;2023-12-29T23:45:32;101479.88;;;9.87;62.77
46944;BME280;32678;43.852;25.952;2023-12-29T23:50:29;101480.22;;;10.12;62.09
46944;BME280;32678;43.852;25.952;2023-12-29T23:55:26;101484.97;;;9.93;62.65
